Aérodrome :
LOGIN :

S'inscrire | Disclaimer

   EN    FR    IT 

 










Légende :    VFR   VFR Marginal   IFR   IFR Intensif   IFR Très Intensif
Visi : 
Plafond : 
>= 8 km
>= 3000ft
5 à 8 km
1000 à 3000 ft
1500m à 5 km
500 à 1000 ft
800 à 1500m
200 à 500 ft
< 800m
< 200 ft
Symboles :   Orages  Brouillard  Fortes neiges  Fortes précipitations  Vent > 20 kt
SIGMETs :   Divers  Orages  Givrage  Turbulence  Onde Orograph.  Cendres Volcan.







- Altitude de l'aérodrome : 215 ft
- Code IATA : ABZ
- Voir les cartes d'approche


EGPD - Aberdeen / Dyce

DERNIER METAR :
  • 101950Z AUTO VRB01KT 9999 NCD M02/M03 Q1026 NOSIG

METARs EXPIRÉS :
  • 101920Z AUTO 36002KT 9999 NCD M02/M03 Q1025 NOSIG
  • 101850Z AUTO 22001KT 9999 NCD M01/M02 Q1025
  • 101820Z AUTO VRB01KT 9999 NCD M01/M03 Q1026
  • 101750Z AUTO VRB01KT 9999 NCD M00/M02 Q1026 NOSIG
  • 101720Z AUTO VRB02KT 9999 NCD 00/M02 Q1025 NOSIG

TAF TAF EGPD
Valide du 10 à 18h jusqu'au 11 à 18h UTC


101703Z 1018/1118 28005KT 9999 FEW035
BECMG 1107/1110 17010KT
TEMPO 1115/1118 BKN012
Pas de NOTAMs connus pour ce terrain.



MET'MAP, la Météo Aéronautique d'un coup d'oeil ! - Copyright ORBIFLY Décembre 2007 - Disclaimer

ORBIFLY MET'MAP TEAM :

Programmation & Développement : Alexandra Zaïnal
Conception & Développement : Baudouin d'Aumeries
Co-Programmation & Développement : Marc-Olivier Méhu
Soutien technique & logistique : Manuel Goepfert

Contact : metmap@orbifly.com




SOURCES & CREDITS :

   NOAA